Main page
METAR-TAF:

METAR-TAF

Airports :

Basra International Airport

Basra, Iraq

latitude: 30-32-56N, longitude: 47-39-45E, elevation: 1 m

Current weather observation

The report was made 45 minutes ago, at 19:00 UTC
Calm wind
Temperature 9°C
Humidity 81%
Pressure 1023 hPa
Visibility 10 km or more
no clouds below 1500 m and no cumulonimbus

METAR: ORMM 271900Z 00000KT CAVOK 09/06 Q1023 NOSIG

Time: 22:45 (19:45 UTC)

Forecast

The report was made 3 hours and 45 minutes ago, at 16:00 UTC
Forecast valid from 27 at 18 UTC to 28 at 18 UTC
Wind 4 kt from the West/Northwest
Visibility: 8000 m

TAF: ORMM 271600Z 2718/2818 30004KT 8000 NSC

Weather observations and forecasts of more than 4000 airports (METAR and TAF reports).

The available stations are represented by yellow and red dots on the map.

Hover mouse over dot to see the name of the station.

Then click to see weather observations and forecasts.

To change the map : click on the green buttons with a black cross to zoom in, on the green button with a dash to zoom out, or on the green arrows for adjacent maps.


METAR-TAF: